createdAt,value
2022-08-03T00:00:09.890Z,15.13
2022-08-03T00:02:57.787Z,16.95
2022-08-03T00:06:03.458Z,16.60
2022-08-03T00:08:37.642Z,16.45
2022-08-03T00:11:23.497Z,17.00
2022-08-03T00:14:11.048Z,15.40
2022-08-03T00:16:58.617Z,16.75
2022-08-03T00:19:46.938Z,19.20
2022-08-03T00:22:36.274Z,19.87
2022-08-03T00:25:23.985Z,17.20
2022-08-03T00:28:11.713Z,16.20
2022-08-03T00:30:59.225Z,20.82
2022-08-03T00:33:58.083Z,15.78
2022-08-03T00:36:35.410Z,16.60
2022-08-03T00:39:23.010Z,16.93
2022-08-03T00:42:10.298Z,14.73
2022-08-03T00:44:57.668Z,16.70
2022-08-03T00:47:45.928Z,17.12
2022-08-03T00:50:35.715Z,23.40
2022-08-03T00:53:23.433Z,17.20
2022-08-03T00:56:12.716Z,18.45
2022-08-03T00:59:00.617Z,16.50
2022-08-03T01:01:48.330Z,14.45
2022-08-03T01:04:35.956Z,16.27
2022-08-03T01:07:35.216Z,18.10
2022-08-03T01:10:31.649Z,33.13
2022-08-03T01:14:01.290Z,20.10
2022-08-03T01:16:35.848Z,16.62
2022-08-03T01:19:39.184Z,18.48
2022-08-03T01:23:03.057Z,13.90
2022-08-03T01:26:12.658Z,12.47
2022-08-03T01:29:21.840Z,15.48
2022-08-03T01:33:02.784Z,13.85
2022-08-03T01:35:12.811Z,17.12
2022-08-03T01:38:04.930Z,15.10
2022-08-03T01:40:54.784Z,14.73
2022-08-03T01:43:55.339Z,14.78
2022-08-03T01:46:33.289Z,16.82
2022-08-03T01:49:21.701Z,16.37
2022-08-03T01:52:09.405Z,13.18
2022-08-03T01:54:57.416Z,15.28
2022-08-03T01:58:05.873Z,12.80
2022-08-03T02:00:37.616Z,20.10
2022-08-03T02:03:26.321Z,15.00
2022-08-03T02:07:00.099Z,14.20
2022-08-03T02:09:05.080Z,14.73
2022-08-03T02:11:53.727Z,13.95
2022-08-03T02:14:43.432Z,14.20
2022-08-03T02:17:39.000Z,13.13
2022-08-03T02:20:21.281Z,15.68
2022-08-03T02:23:08.777Z,17.48
2022-08-03T02:26:02.305Z,13.10
2022-08-03T02:28:52.343Z,14.50
2022-08-03T02:31:41.360Z,14.30
2022-08-03T02:34:30.019Z,14.20
2022-08-03T02:37:19.553Z,15.05
2022-08-03T02:40:08.391Z,14.58
2022-08-03T02:42:59.359Z,14.80
2022-08-03T02:45:49.360Z,17.92
2022-08-03T02:48:38.432Z,15.70
2022-08-03T02:51:26.880Z,15.55
2022-08-03T02:54:16.561Z,14.85
2022-08-03T02:57:04.247Z,19.98
2022-08-03T02:59:51.736Z,12.80
2022-08-03T03:02:40.831Z,14.73
2022-08-03T03:05:52.241Z,13.05
2022-08-03T03:08:26.157Z,12.07
2022-08-03T03:11:10.488Z,14.65
2022-08-03T03:13:58.799Z,15.00
2022-08-03T03:16:47.304Z,17.00
2022-08-03T03:19:38.144Z,13.83
2022-08-03T03:22:26.215Z,15.60
2022-08-03T03:25:13.999Z,14.87
2022-08-03T03:28:02.423Z,15.50
2022-08-03T03:30:52.846Z,15.38
2022-08-03T03:33:40.667Z,15.03
2022-08-03T03:36:28.104Z,15.30
2022-08-03T03:39:16.206Z,14.13
2022-08-03T03:42:04.368Z,15.48
2022-08-03T03:44:51.697Z,18.62
2022-08-03T03:47:39.823Z,15.53
2022-08-03T03:50:28.508Z,16.57
2022-08-03T03:53:16.303Z,15.13
2022-08-03T03:56:04.102Z,14.93
2022-08-03T03:58:51.575Z,16.95
2022-08-03T04:01:40.158Z,16.20
2022-08-03T04:04:45.607Z,15.23
2022-08-03T04:07:49.871Z,15.15
2022-08-03T04:10:43.077Z,14.80
2022-08-03T04:13:36.326Z,13.98
2022-08-03T04:16:26.590Z,15.78
2022-08-03T04:24:55.071Z,14.30
2022-08-03T04:27:43.841Z,20.30
2022-08-03T04:30:32.446Z,21.62
2022-08-03T04:33:19.997Z,19.42
2022-08-03T04:36:10.902Z,19.23
2022-08-03T04:39:01.720Z,18.10
2022-08-03T04:42:02.346Z,18.42
2022-08-03T04:44:41.375Z,18.52
2022-08-03T04:47:28.985Z,19.60
2022-08-03T04:50:21.398Z,18.32
2022-08-03T04:53:07.888Z,19.48
2022-08-03T04:55:55.679Z,18.82
2022-08-03T04:58:43.351Z,18.07
2022-08-03T05:01:30.462Z,18.75
2022-08-03T05:04:18.577Z,17.67
2022-08-03T05:07:11.671Z,18.20
2022-08-03T05:10:01.320Z,18.17
2022-08-03T05:12:43.327Z,18.90
2022-08-03T05:15:30.712Z,19.92
2022-08-03T05:18:18.560Z,21.70
2022-08-03T05:21:05.823Z,20.23
2022-08-03T05:23:53.312Z,23.12
2022-08-03T05:26:40.527Z,21.23
2022-08-03T05:29:27.785Z,23.75
2022-08-03T05:32:15.439Z,25.02
2022-08-03T05:35:57.366Z,19.05
2022-08-03T05:37:54.756Z,20.23
2022-08-03T05:40:40.391Z,15.50
2022-08-03T05:43:29.458Z,15.60
2022-08-03T05:46:17.138Z,17.48
2022-08-03T05:49:04.865Z,17.10
2022-08-03T05:52:00.285Z,16.05
2022-08-03T05:54:56.647Z,14.98
2022-08-03T05:57:31.440Z,14.07
2022-08-03T06:00:19.712Z,13.05
2022-08-03T06:03:08.792Z,13.08
2022-08-03T06:06:00.323Z,9.83
2022-08-03T06:08:46.803Z,10.45
2022-08-03T06:11:34.520Z,10.45
2022-08-03T06:14:22.176Z,14.28
2022-08-03T06:17:09.464Z,11.53
2022-08-03T06:19:58.489Z,10.32
2022-08-03T06:22:51.177Z,9.48
2022-08-03T06:25:35.993Z,9.88
2022-08-03T06:28:53.038Z,13.00
2022-08-03T06:31:12.985Z,9.53
2022-08-03T06:34:33.027Z,10.78
2022-08-03T06:36:52.262Z,9.83
2022-08-03T06:39:40.209Z,9.30
2022-08-03T06:42:27.921Z,10.13
2022-08-03T06:45:15.512Z,9.18
2022-08-03T06:48:10.969Z,9.23
2022-08-03T06:50:58.630Z,8.80
2022-08-03T06:53:46.410Z,9.53
2022-08-03T06:56:33.841Z,9.15
2022-08-03T07:00:10.364Z,10.85
2022-08-03T07:02:10.690Z,10.32
2022-08-03T07:04:58.307Z,9.43
2022-08-03T07:07:46.433Z,8.73
2022-08-03T07:10:33.803Z,10.93
2022-08-03T07:13:21.194Z,8.53
2022-08-03T07:16:08.784Z,8.70
2022-08-03T07:18:56.098Z,8.45
2022-08-03T07:21:43.794Z,10.10
2022-08-03T07:24:31.473Z,8.50
2022-08-03T07:27:18.945Z,8.65
2022-08-03T07:30:08.340Z,9.60
2022-08-03T07:32:55.482Z,9.10
2022-08-03T07:35:42.945Z,8.55
2022-08-03T07:38:30.245Z,10.15
2022-08-03T07:41:17.945Z,10.55
2022-08-03T07:44:05.480Z,8.53
2022-08-03T07:46:52.771Z,9.33
2022-08-03T07:49:44.479Z,8.58
2022-08-03T07:52:33.912Z,13.35
2022-08-03T07:55:24.409Z,9.95
2022-08-03T07:58:16.474Z,10.38
2022-08-03T08:01:04.607Z,8.85
2022-08-03T08:03:53.446Z,8.50
2022-08-03T08:06:41.201Z,9.20
2022-08-03T08:09:29.134Z,9.75
2022-08-03T08:12:16.988Z,6.20
2022-08-03T08:15:04.695Z,8.45
2022-08-03T08:17:54.629Z,11.43
2022-08-03T08:20:41.769Z,7.45
2022-08-03T08:23:37.904Z,6.37
2022-08-03T08:26:20.213Z,9.03
2022-08-03T08:29:07.512Z,5.85
2022-08-03T08:31:55.048Z,10.10
2022-08-03T08:34:42.648Z,6.92
2022-08-03T08:37:29.666Z,6.85
2022-08-03T08:40:17.618Z,6.75
2022-08-03T08:43:07.603Z,8.20
2022-08-03T08:45:55.816Z,6.20
2022-08-03T08:48:45.147Z,6.58
2022-08-03T08:51:51.040Z,6.05
2022-08-03T08:54:23.576Z,6.10
2022-08-03T08:57:26.858Z,10.68
2022-08-03T09:00:01.871Z,6.53
2022-08-03T09:02:49.463Z,7.10
2022-08-03T09:05:55.490Z,6.33
2022-08-03T09:08:27.873Z,7.97
2022-08-03T09:11:14.913Z,7.20
2022-08-03T09:14:02.591Z,5.83
2022-08-03T09:17:04.448Z,10.72
2022-08-03T09:20:11.391Z,6.12
2022-08-03T09:23:19.074Z,7.70
2022-08-03T09:25:57.105Z,5.75
2022-08-03T09:29:00.086Z,9.05
2022-08-03T09:31:45.070Z,7.00
2022-08-03T09:34:33.057Z,5.95
2022-08-03T09:37:23.536Z,7.30
2022-08-03T09:40:13.479Z,8.85
2022-08-03T09:43:01.857Z,6.05
2022-08-03T09:45:49.378Z,5.87
2022-08-03T09:48:37.492Z,6.10
2022-08-03T09:51:33.202Z,7.05
2022-08-03T09:54:20.630Z,7.22
2022-08-03T09:57:06.605Z,6.87
2022-08-03T10:00:04.703Z,7.87
2022-08-03T10:02:46.840Z,7.97
2022-08-03T10:05:34.432Z,6.65
2022-08-03T10:08:22.361Z,7.20
2022-08-03T10:11:09.688Z,8.40
2022-08-03T10:13:57.968Z,6.00
2022-08-03T10:16:46.729Z,6.00
2022-08-03T10:19:34.828Z,8.53
2022-08-03T10:25:11.288Z,5.83
2022-08-03T10:28:01.225Z,5.40
2022-08-03T10:30:53.287Z,6.08
2022-08-03T10:33:49.687Z,5.85
2022-08-03T10:36:33.839Z,7.65
2022-08-03T10:39:23.372Z,7.65
2022-08-03T10:42:14.705Z,6.25
2022-08-03T10:47:51.162Z,5.93
2022-08-03T10:50:39.209Z,8.55
2022-08-03T10:53:37.681Z,5.90
2022-08-03T10:56:55.420Z,8.15
2022-08-03T10:59:52.442Z,5.80
2022-08-03T11:03:08.926Z,6.40
2022-08-03T11:06:17.825Z,5.87
2022-08-03T11:09:16.936Z,6.65
2022-08-03T11:12:05.896Z,7.00
2022-08-03T11:14:55.095Z,5.80
2022-08-03T11:17:46.925Z,5.67
2022-08-03T11:20:47.436Z,6.00
2022-08-03T11:24:04.714Z,7.25
2022-08-03T11:26:38.592Z,8.38
2022-08-03T11:29:30.593Z,6.35
2022-08-03T11:32:37.643Z,9.70
2022-08-03T11:35:37.064Z,7.60
2022-08-03T11:38:24.967Z,6.62
2022-08-03T11:41:15.492Z,7.42
2022-08-03T11:44:03.289Z,6.42
2022-08-03T11:46:50.712Z,6.37
2022-08-03T11:49:40.550Z,7.22
2022-08-03T11:52:29.090Z,6.40
2022-08-03T11:55:18.976Z,6.62
2022-08-03T11:59:13.150Z,7.87
2022-08-03T12:01:06.770Z,6.53
2022-08-03T12:03:54.241Z,5.92
2022-08-03T12:06:56.459Z,7.42
2022-08-03T12:09:44.409Z,7.15
2022-08-03T12:12:31.960Z,6.95
2022-08-03T12:15:22.737Z,8.25
2022-08-03T12:18:18.505Z,8.03
2022-08-03T12:21:10.398Z,6.87
2022-08-03T12:24:00.901Z,7.08
2022-08-03T12:26:58.556Z,6.33
2022-08-03T12:29:39.992Z,6.78
2022-08-03T12:32:28.049Z,6.53
2022-08-03T12:35:25.577Z,6.40
2022-08-03T12:38:13.705Z,6.25
2022-08-03T12:41:06.679Z,6.22
2022-08-03T12:43:55.344Z,5.87
2022-08-03T12:46:47.759Z,6.62
2022-08-03T12:49:50.425Z,5.85
2022-08-03T12:52:45.786Z,5.80
2022-08-03T12:55:57.521Z,7.78
2022-08-03T12:58:34.530Z,5.92
2022-08-03T13:01:27.421Z,6.33
2022-08-03T13:04:18.265Z,5.83
2022-08-03T13:07:06.498Z,7.83
2022-08-03T13:09:56.993Z,7.05
2022-08-03T13:12:50.927Z,6.83
2022-08-03T13:15:48.103Z,5.03
2022-08-03T13:21:16.456Z,5.33
2022-08-03T13:24:03.689Z,5.47
2022-08-03T13:26:51.745Z,5.53
2022-08-03T13:29:39.224Z,5.47
2022-08-03T13:32:26.487Z,5.60
2022-08-03T13:35:16.499Z,7.30
2022-08-03T13:38:04.338Z,5.05
2022-08-03T13:40:56.459Z,7.45
2022-08-03T13:43:43.802Z,5.20
2022-08-03T13:46:31.344Z,5.35
2022-08-03T13:49:19.803Z,6.42
2022-08-03T13:52:07.386Z,5.85
2022-08-03T13:54:54.950Z,6.58
2022-08-03T13:58:11.928Z,4.95
2022-08-03T14:00:31.554Z,5.10
2022-08-03T14:03:18.979Z,5.28
2022-08-03T14:06:07.153Z,5.92
2022-08-03T14:09:00.310Z,4.83
2022-08-03T14:12:07.650Z,5.08
2022-08-03T14:14:34.791Z,5.62
2022-08-03T14:17:23.909Z,7.30
2022-08-03T14:20:36.635Z,6.73
2022-08-03T14:23:02.490Z,4.70
2022-08-03T14:25:52.354Z,6.55
2022-08-03T14:28:39.001Z,4.17
2022-08-03T14:32:09.982Z,6.03
2022-08-03T14:34:16.480Z,5.95
2022-08-03T14:37:03.874Z,5.87
2022-08-03T14:40:00.071Z,6.75
2022-08-03T14:42:40.234Z,7.47
2022-08-03T14:45:27.842Z,6.80
2022-08-03T14:50:30.725Z,6.95
2022-08-03T14:51:04.154Z,6.60
2022-08-03T14:53:51.609Z,8.08
2022-08-03T14:56:39.314Z,5.70
2022-08-03T14:59:26.426Z,5.60
2022-08-03T15:02:23.310Z,7.42
2022-08-03T15:05:03.411Z,5.55
2022-08-03T15:07:51.245Z,5.55
2022-08-03T15:10:44.425Z,6.40
2022-08-03T15:13:28.873Z,6.70
2022-08-03T15:16:16.665Z,5.03
2022-08-03T15:19:04.908Z,5.10
2022-08-03T15:21:53.461Z,4.15
2022-08-03T15:24:40.953Z,4.40
2022-08-03T15:27:28.377Z,7.25
2022-08-03T15:30:16.088Z,3.95
2022-08-03T15:33:03.745Z,4.05
2022-08-03T15:35:51.178Z,3.90
2022-08-03T15:38:38.560Z,3.85
2022-08-03T15:41:26.122Z,7.08
2022-08-03T15:44:13.577Z,4.12
2022-08-03T15:47:00.650Z,3.92
2022-08-03T15:49:48.264Z,5.45
2022-08-03T15:52:35.617Z,4.85
2022-08-03T15:55:23.193Z,4.78
2022-08-03T15:59:04.323Z,5.78
2022-08-03T16:01:03.799Z,5.92
2022-08-03T16:03:51.194Z,4.85
2022-08-03T16:06:38.776Z,4.62
2022-08-03T16:09:43.200Z,5.83
2022-08-03T16:12:16.878Z,5.58
2022-08-03T16:15:05.802Z,4.00
2022-08-03T16:17:53.740Z,3.80
2022-08-03T16:20:41.713Z,3.62
2022-08-03T16:23:29.547Z,4.13
2022-08-03T16:26:18.621Z,3.62
2022-08-03T16:29:08.524Z,4.20
2022-08-03T16:31:55.178Z,4.12
2022-08-03T16:34:42.628Z,5.17
2022-08-03T16:37:38.932Z,4.67
2022-08-03T16:40:19.954Z,5.20
2022-08-03T16:43:18.516Z,4.97
2022-08-03T16:46:03.410Z,5.12
2022-08-03T16:48:50.809Z,4.87
2022-08-03T16:51:40.372Z,5.00
2022-08-03T16:54:29.024Z,5.53
2022-08-03T16:57:29.726Z,5.12
2022-08-03T17:00:06.706Z,7.45
2022-08-03T17:02:56.528Z,5.53
2022-08-03T17:05:47.150Z,5.42
2022-08-03T17:08:34.041Z,5.92
2022-08-03T17:11:21.674Z,6.50
2022-08-03T17:14:09.862Z,5.87
2022-08-03T17:17:01.661Z,8.03
2022-08-03T17:19:54.266Z,5.37
2022-08-03T17:22:40.681Z,5.83
2022-08-03T17:26:01.354Z,6.60
2022-08-03T17:28:43.100Z,6.42
2022-08-03T17:31:31.420Z,6.75
2022-08-03T17:34:12.312Z,7.70
2022-08-03T17:37:04.868Z,7.75
2022-08-03T17:39:58.753Z,7.70
2022-08-03T17:42:40.700Z,7.58
2022-08-03T17:45:52.596Z,6.92
2022-08-03T17:48:18.870Z,9.35
2022-08-03T17:51:15.444Z,7.72
2022-08-03T17:54:21.963Z,8.05
2022-08-03T17:57:22.712Z,9.18
2022-08-03T18:00:27.097Z,9.00
2022-08-03T18:06:12.850Z,9.28
2022-08-03T18:11:52.681Z,10.40
2022-08-03T18:14:57.912Z,9.75
2022-08-03T18:17:55.337Z,8.60
2022-08-03T18:20:32.808Z,9.93
2022-08-03T18:23:24.866Z,9.98
2022-08-03T18:26:07.256Z,9.35
2022-08-03T18:28:56.426Z,15.68
2022-08-03T18:32:02.504Z,8.40
2022-08-03T18:34:35.577Z,8.98
2022-08-03T18:37:27.585Z,9.28
2022-08-03T18:40:20.629Z,9.95
2022-08-03T18:43:07.969Z,12.43
2022-08-03T18:45:58.240Z,9.18
2022-08-03T18:48:51.536Z,12.03
2022-08-03T18:51:43.171Z,32.03
2022-08-03T18:57:30.377Z,30.68
2022-08-03T19:00:15.817Z,23.30
2022-08-03T19:03:09.097Z,16.35
2022-08-03T19:06:13.312Z,21.70
2022-08-03T19:09:09.678Z,17.87
2022-08-03T19:12:14.066Z,19.48
2022-08-03T19:14:52.225Z,18.37
2022-08-03T19:17:50.221Z,15.95
2022-08-03T19:20:36.561Z,16.37
2022-08-03T19:23:26.217Z,16.37
2022-08-03T19:26:30.215Z,21.30
2022-08-03T19:29:15.149Z,16.65
2022-08-03T19:32:00.152Z,18.57
2022-08-03T19:34:49.441Z,15.48
2022-08-03T19:37:40.279Z,15.85
2022-08-03T19:40:30.482Z,22.22
2022-08-03T19:43:33.133Z,21.23
2022-08-03T19:46:30.322Z,35.95
2022-08-03T19:49:14.765Z,33.13
2022-08-03T19:52:04.377Z,30.60
2022-08-03T19:54:55.294Z,34.45
2022-08-03T20:00:38.137Z,19.80
2022-08-03T20:03:42.951Z,21.70
2022-08-03T20:06:25.377Z,24.23
2022-08-03T20:09:15.005Z,35.28
2022-08-03T20:14:56.832Z,29.57
2022-08-03T20:17:54.537Z,28.07
2022-08-03T20:20:37.185Z,29.40
2022-08-03T20:23:26.105Z,30.57
2022-08-03T20:26:20.480Z,30.65
2022-08-03T20:29:11.298Z,25.17
2022-08-03T20:31:59.466Z,21.50
2022-08-03T20:34:49.420Z,22.35
2022-08-03T20:37:37.322Z,25.60
2022-08-03T20:40:27.500Z,38.05
2022-08-03T20:43:15.761Z,52.00
2022-08-03T20:46:29.406Z,59.88
2022-08-03T20:48:52.858Z,34.98
2022-08-03T20:51:49.762Z,27.70
2022-08-03T20:54:31.850Z,17.82
2022-08-03T20:57:20.134Z,16.90
2022-08-03T21:00:10.428Z,15.93
2022-08-03T21:02:58.849Z,16.12
2022-08-03T21:05:51.764Z,26.05
2022-08-03T21:11:41.415Z,51.00
2022-08-03T21:12:56.884Z,7.12
2022-08-03T21:13:14.253Z,38.02
2022-08-03T21:14:35.520Z,33.73
2022-08-03T21:17:39.609Z,29.55
2022-08-03T21:20:13.793Z,97.70
2022-08-03T21:23:01.876Z,50.52
2022-08-03T21:25:51.041Z,18.40
2022-08-03T21:28:39.952Z,18.07
2022-08-03T21:31:27.343Z,22.80
2022-08-03T21:34:15.049Z,30.50
2022-08-03T21:37:02.768Z,20.20
2022-08-03T21:39:51.255Z,35.70
2022-08-03T21:42:43.297Z,29.77
2022-08-03T21:45:30.560Z,26.25
2022-08-03T21:48:18.448Z,22.58
2022-08-03T21:51:07.601Z,23.15
2022-08-03T21:54:03.231Z,26.27
2022-08-03T21:56:45.032Z,29.23
2022-08-03T21:59:36.608Z,32.55
2022-08-03T22:02:31.555Z,27.45
2022-08-03T22:05:20.024Z,25.72
2022-08-03T22:08:09.417Z,22.80
2022-08-03T22:10:56.672Z,27.75
2022-08-03T22:13:44.794Z,29.20
2022-08-03T22:16:32.160Z,25.57
2022-08-03T22:19:20.001Z,25.97
2022-08-03T22:22:10.361Z,22.98
2022-08-03T22:27:47.138Z,24.35
2022-08-03T22:30:34.723Z,19.57
2022-08-03T22:33:22.794Z,18.42
2022-08-03T22:36:11.787Z,18.35
2022-08-03T22:38:59.126Z,22.48
2022-08-03T22:41:47.017Z,19.65
2022-08-03T22:44:36.768Z,21.20
2022-08-03T22:47:24.968Z,18.73
2022-08-03T22:50:31.948Z,14.68
2022-08-03T22:53:04.024Z,17.77
2022-08-03T22:55:52.534Z,16.77
2022-08-03T22:58:40.483Z,19.67
2022-08-03T23:01:29.474Z,24.02
2022-08-03T23:04:18.068Z,26.02
2022-08-03T23:07:09.424Z,26.42
2022-08-03T23:09:58.657Z,20.75
2022-08-03T23:12:49.410Z,25.90
2022-08-03T23:15:37.098Z,22.95
2022-08-03T23:18:25.610Z,19.40
2022-08-03T23:21:13.146Z,22.93
2022-08-03T23:24:05.265Z,24.55
2022-08-03T23:26:54.176Z,20.72
2022-08-03T23:29:43.770Z,22.10
2022-08-03T23:32:32.282Z,19.90
2022-08-03T23:36:29.163Z,18.57
2022-08-03T23:38:31.651Z,17.05
2022-08-03T23:41:19.553Z,18.07
2022-08-03T23:44:06.865Z,16.55
2022-08-03T23:46:54.011Z,16.07
2022-08-03T23:49:41.387Z,14.53
2022-08-03T23:52:37.714Z,17.92
2022-08-03T23:55:52.746Z,16.55
2022-08-03T23:59:04.137Z,16.73
